sensor_id;sensor_type;location;lat;lon;timestamp;P1;durP1;ratioP1;P2;durP2;ratioP2
37365;SDS011;23239;51.504;7.456;2024-03-22T00:00:00;35.0;;;24.4;;
37365;SDS011;23239;51.504;7.456;2024-03-22T00:01:01;35.0;;;24.4;;
37365;SDS011;23239;51.504;7.456;2024-03-22T00:02:00;38.8;;;24.5;;
37365;SDS011;23239;51.504;7.456;2024-03-22T00:03:00;38.8;;;24.5;;
37365;SDS011;23239;51.504;7.456;2024-03-22T00:04:00;38.8;;;24.5;;
37365;SDS011;23239;51.504;7.456;2024-03-22T00:05:00;38.8;;;24.5;;
37365;SDS011;23239;51.504;7.456;2024-03-22T00:06:00;38.8;;;24.5;;
37365;SDS011;23239;51.504;7.456;2024-03-22T00:07:00;36.7;;;24.3;;
37365;SDS011;23239;51.504;7.456;2024-03-22T00:08:00;36.7;;;24.3;;
37365;SDS011;23239;51.504;7.456;2024-03-22T00:09:00;36.7;;;24.3;;
37365;SDS011;23239;51.504;7.456;2024-03-22T00:10:00;36.7;;;24.3;;
37365;SDS011;23239;51.504;7.456;2024-03-22T00:11:00;36.7;;;24.3;;
37365;SDS011;23239;51.504;7.456;2024-03-22T00:12:00;35.9;;;24.2;;
37365;SDS011;23239;51.504;7.456;2024-03-22T00:13:00;35.9;;;24.2;;
37365;SDS011;23239;51.504;7.456;2024-03-22T00:14:00;35.9;;;24.2;;
37365;SDS011;23239;51.504;7.456;2024-03-22T00:15:00;35.9;;;24.2;;
37365;SDS011;23239;51.504;7.456;2024-03-22T00:16:00;35.9;;;24.2;;
37365;SDS011;23239;51.504;7.456;2024-03-22T00:17:00;38.1;;;24.3;;
37365;SDS011;23239;51.504;7.456;2024-03-22T00:18:00;38.1;;;24.3;;
37365;SDS011;23239;51.504;7.456;2024-03-22T00:19:00;38.1;;;24.3;;
37365;SDS011;23239;51.504;7.456;2024-03-22T00:20:00;38.1;;;24.3;;
37365;SDS011;23239;51.504;7.456;2024-03-22T00:21:00;38.1;;;24.3;;
37365;SDS011;23239;51.504;7.456;2024-03-22T00:22:00;34.0;;;22.9;;
37365;SDS011;23239;51.504;7.456;2024-03-22T00:23:00;34.0;;;22.9;;
37365;SDS011;23239;51.504;7.456;2024-03-22T00:24:00;34.0;;;22.9;;
37365;SDS011;23239;51.504;7.456;2024-03-22T00:25:00;34.0;;;22.9;;
37365;SDS011;23239;51.504;7.456;2024-03-22T00:26:00;34.0;;;22.9;;
37365;SDS011;23239;51.504;7.456;2024-03-22T00:27:00;36.8;;;24.0;;
37365;SDS011;23239;51.504;7.456;2024-03-22T00:28:00;36.8;;;24.0;;
37365;SDS011;23239;51.504;7.456;2024-03-22T00:29:00;36.8;;;24.0;;
37365;SDS011;23239;51.504;7.456;2024-03-22T00:30:00;36.8;;;24.0;;
37365;SDS011;23239;51.504;7.456;2024-03-22T00:31:00;36.8;;;24.0;;
37365;SDS011;23239;51.504;7.456;2024-03-22T00:32:00;34.6;;;22.9;;
37365;SDS011;23239;51.504;7.456;2024-03-22T00:33:00;34.6;;;22.9;;
37365;SDS011;23239;51.504;7.456;2024-03-22T00:34:00;34.6;;;22.9;;
37365;SDS011;23239;51.504;7.456;2024-03-22T00:35:00;34.6;;;22.9;;
37365;SDS011;23239;51.504;7.456;2024-03-22T00:36:00;34.6;;;22.9;;
37365;SDS011;23239;51.504;7.456;2024-03-22T00:37:00;35.6;;;23.4;;
37365;SDS011;23239;51.504;7.456;2024-03-22T00:38:02;35.6;;;23.4;;
37365;SDS011;23239;51.504;7.456;2024-03-22T00:39:00;35.6;;;23.4;;
37365;SDS011;23239;51.504;7.456;2024-03-22T00:40:00;35.6;;;23.4;;
37365;SDS011;23239;51.504;7.456;2024-03-22T00:41:00;35.6;;;23.4;;
37365;SDS011;23239;51.504;7.456;2024-03-22T00:42:00;33.1;;;22.8;;
37365;SDS011;23239;51.504;7.456;2024-03-22T00:43:00;33.1;;;22.8;;
37365;SDS011;23239;51.504;7.456;2024-03-22T00:44:00;33.1;;;22.8;;
37365;SDS011;23239;51.504;7.456;2024-03-22T00:45:00;33.1;;;22.8;;
37365;SDS011;23239;51.504;7.456;2024-03-22T00:46:00;33.1;;;22.8;;
37365;SDS011;23239;51.504;7.456;2024-03-22T00:47:00;34.4;;;22.4;;
37365;SDS011;23239;51.504;7.456;2024-03-22T00:48:00;34.4;;;22.4;;
37365;SDS011;23239;51.504;7.456;2024-03-22T00:49:00;34.4;;;22.4;;
37365;SDS011;23239;51.504;7.456;2024-03-22T00:50:00;34.4;;;22.4;;
37365;SDS011;23239;51.504;7.456;2024-03-22T00:51:00;34.4;;;22.4;;
37365;SDS011;23239;51.504;7.456;2024-03-22T00:52:00;30.9;;;21.1;;
37365;SDS011;23239;51.504;7.456;2024-03-22T00:53:00;30.9;;;21.1;;
37365;SDS011;23239;51.504;7.456;2024-03-22T00:54:00;30.9;;;21.1;;
37365;SDS011;23239;51.504;7.456;2024-03-22T00:55:00;30.9;;;21.1;;
37365;SDS011;23239;51.504;7.456;2024-03-22T00:56:00;30.9;;;21.1;;
37365;SDS011;23239;51.504;7.456;2024-03-22T00:57:01;34.3;;;21.2;;
37365;SDS011;23239;51.504;7.456;2024-03-22T00:58:00;34.3;;;21.2;;
37365;SDS011;23239;51.504;7.456;2024-03-22T00:59:00;34.3;;;21.2;;
37365;SDS011;23239;51.504;7.456;2024-03-22T01:00:00;34.3;;;21.2;;
37365;SDS011;23239;51.504;7.456;2024-03-22T01:01:00;34.3;;;21.2;;
37365;SDS011;23239;51.504;7.456;2024-03-22T01:02:00;32.0;;;21.2;;
37365;SDS011;23239;51.504;7.456;2024-03-22T01:03:00;32.0;;;21.2;;
37365;SDS011;23239;51.504;7.456;2024-03-22T01:04:00;32.0;;;21.2;;
37365;SDS011;23239;51.504;7.456;2024-03-22T01:05:00;32.0;;;21.2;;
37365;SDS011;23239;51.504;7.456;2024-03-22T01:06:00;32.0;;;21.2;;
37365;SDS011;23239;51.504;7.456;2024-03-22T01:07:00;34.2;;;21.6;;
37365;SDS011;23239;51.504;7.456;2024-03-22T01:08:00;34.2;;;21.6;;
37365;SDS011;23239;51.504;7.456;2024-03-22T01:09:00;34.2;;;21.6;;
37365;SDS011;23239;51.504;7.456;2024-03-22T01:10:00;34.2;;;21.6;;
37365;SDS011;23239;51.504;7.456;2024-03-22T01:11:00;34.2;;;21.6;;
37365;SDS011;23239;51.504;7.456;2024-03-22T01:12:00;32.2;;;20.0;;
37365;SDS011;23239;51.504;7.456;2024-03-22T01:13:00;32.2;;;20.0;;
37365;SDS011;23239;51.504;7.456;2024-03-22T01:14:00;32.2;;;20.0;;
37365;SDS011;23239;51.504;7.456;2024-03-22T01:15:00;32.2;;;20.0;;
37365;SDS011;23239;51.504;7.456;2024-03-22T01:16:00;32.2;;;20.0;;
37365;SDS011;23239;51.504;7.456;2024-03-22T01:17:00;31.2;;;20.2;;
37365;SDS011;23239;51.504;7.456;2024-03-22T01:18:00;31.2;;;20.2;;
37365;SDS011;23239;51.504;7.456;2024-03-22T01:19:00;31.2;;;20.2;;
37365;SDS011;23239;51.504;7.456;2024-03-22T01:20:00;31.2;;;20.2;;
37365;SDS011;23239;51.504;7.456;2024-03-22T01:21:00;31.2;;;20.2;;
37365;SDS011;23239;51.504;7.456;2024-03-22T01:22:00;31.7;;;20.8;;
37365;SDS011;23239;51.504;7.456;2024-03-22T01:23:00;31.7;;;20.8;;
37365;SDS011;23239;51.504;7.456;2024-03-22T01:24:00;31.7;;;20.8;;
37365;SDS011;23239;51.504;7.456;2024-03-22T01:25:00;31.7;;;20.8;;
37365;SDS011;23239;51.504;7.456;2024-03-22T01:26:00;31.7;;;20.8;;
37365;SDS011;23239;51.504;7.456;2024-03-22T01:27:00;30.1;;;19.8;;
37365;SDS011;23239;51.504;7.456;2024-03-22T01:28:00;30.1;;;19.8;;
37365;SDS011;23239;51.504;7.456;2024-03-22T01:29:00;30.1;;;19.8;;
37365;SDS011;23239;51.504;7.456;2024-03-22T01:30:00;30.1;;;19.8;;
37365;SDS011;23239;51.504;7.456;2024-03-22T01:31:00;30.1;;;19.8;;
37365;SDS011;23239;51.504;7.456;2024-03-22T01:32:00;29.6;;;20.1;;
37365;SDS011;23239;51.504;7.456;2024-03-22T01:33:00;29.6;;;20.1;;
37365;SDS011;23239;51.504;7.456;2024-03-22T01:34:00;29.6;;;20.1;;
37365;SDS011;23239;51.504;7.456;2024-03-22T01:35:00;29.6;;;20.1;;
37365;SDS011;23239;51.504;7.456;2024-03-22T01:36:00;29.6;;;20.1;;
37365;SDS011;23239;51.504;7.456;2024-03-22T01:37:00;35.4;;;21.9;;
37365;SDS011;23239;51.504;7.456;2024-03-22T01:38:00;35.4;;;21.9;;
37365;SDS011;23239;51.504;7.456;2024-03-22T01:39:00;35.4;;;21.9;;
37365;SDS011;23239;51.504;7.456;2024-03-22T01:40:00;35.4;;;21.9;;
37365;SDS011;23239;51.504;7.456;2024-03-22T01:41:00;35.4;;;21.9;;
37365;SDS011;23239;51.504;7.456;2024-03-22T01:42:00;31.7;;;20.4;;
37365;SDS011;23239;51.504;7.456;2024-03-22T01:43:00;31.7;;;20.4;;
37365;SDS011;23239;51.504;7.456;2024-03-22T01:44:00;31.7;;;20.4;;
37365;SDS011;23239;51.504;7.456;2024-03-22T01:45:00;31.7;;;20.4;;
37365;SDS011;23239;51.504;7.456;2024-03-22T01:46:00;31.7;;;20.4;;
37365;SDS011;23239;51.504;7.456;2024-03-22T01:47:00;35.2;;;21.1;;
37365;SDS011;23239;51.504;7.456;2024-03-22T01:48:00;35.2;;;21.1;;
37365;SDS011;23239;51.504;7.456;2024-03-22T01:49:00;35.2;;;21.1;;
37365;SDS011;23239;51.504;7.456;2024-03-22T01:50:00;35.2;;;21.1;;
37365;SDS011;23239;51.504;7.456;2024-03-22T01:51:00;35.2;;;21.1;;
37365;SDS011;23239;51.504;7.456;2024-03-22T01:52:00;31.5;;;20.2;;
37365;SDS011;23239;51.504;7.456;2024-03-22T01:53:00;31.5;;;20.2;;
37365;SDS011;23239;51.504;7.456;2024-03-22T01:54:00;31.5;;;20.2;;
37365;SDS011;23239;51.504;7.456;2024-03-22T01:55:00;31.5;;;20.2;;
37365;SDS011;23239;51.504;7.456;2024-03-22T01:56:00;31.5;;;20.2;;
37365;SDS011;23239;51.504;7.456;2024-03-22T01:57:00;34.8;;;21.5;;
37365;SDS011;23239;51.504;7.456;2024-03-22T01:58:00;34.8;;;21.5;;
37365;SDS011;23239;51.504;7.456;2024-03-22T01:59:00;34.8;;;21.5;;
37365;SDS011;23239;51.504;7.456;2024-03-22T02:00:00;34.8;;;21.5;;
37365;SDS011;23239;51.504;7.456;2024-03-22T02:01:00;34.8;;;21.5;;
37365;SDS011;23239;51.504;7.456;2024-03-22T02:02:00;34.9;;;20.3;;
37365;SDS011;23239;51.504;7.456;2024-03-22T02:03:00;34.9;;;20.3;;
37365;SDS011;23239;51.504;7.456;2024-03-22T02:04:00;34.9;;;20.3;;
37365;SDS011;23239;51.504;7.456;2024-03-22T02:06:00;34.9;;;20.3;;
37365;SDS011;23239;51.504;7.456;2024-03-22T02:07:00;33.1;;;21.1;;
37365;SDS011;23239;51.504;7.456;2024-03-22T02:08:00;33.1;;;21.1;;
37365;SDS011;23239;51.504;7.456;2024-03-22T02:09:00;33.1;;;21.1;;
37365;SDS011;23239;51.504;7.456;2024-03-22T02:10:00;33.1;;;21.1;;
37365;SDS011;23239;51.504;7.456;2024-03-22T02:11:01;33.1;;;21.1;;
37365;SDS011;23239;51.504;7.456;2024-03-22T02:12:00;32.7;;;20.5;;
37365;SDS011;23239;51.504;7.456;2024-03-22T02:13:00;32.7;;;20.5;;
37365;SDS011;23239;51.504;7.456;2024-03-22T02:14:00;32.7;;;20.5;;
37365;SDS011;23239;51.504;7.456;2024-03-22T02:15:01;32.7;;;20.5;;
37365;SDS011;23239;51.504;7.456;2024-03-22T02:16:02;32.7;;;20.5;;
37365;SDS011;23239;51.504;7.456;2024-03-22T02:17:00;34.7;;;20.9;;
37365;SDS011;23239;51.504;7.456;2024-03-22T02:18:00;34.7;;;20.9;;
37365;SDS011;23239;51.504;7.456;2024-03-22T02:19:01;34.7;;;20.9;;
37365;SDS011;23239;51.504;7.456;2024-03-22T02:20:01;34.7;;;20.9;;
37365;SDS011;23239;51.504;7.456;2024-03-22T02:21:00;34.7;;;20.9;;
37365;SDS011;23239;51.504;7.456;2024-03-22T02:22:00;33.6;;;20.6;;
37365;SDS011;23239;51.504;7.456;2024-03-22T02:23:00;33.6;;;20.6;;
37365;SDS011;23239;51.504;7.456;2024-03-22T02:24:00;33.6;;;20.6;;
37365;SDS011;23239;51.504;7.456;2024-03-22T02:25:00;33.6;;;20.6;;
37365;SDS011;23239;51.504;7.456;2024-03-22T02:26:00;33.6;;;20.6;;
37365;SDS011;23239;51.504;7.456;2024-03-22T02:27:00;34.3;;;19.9;;
37365;SDS011;23239;51.504;7.456;2024-03-22T02:28:00;34.3;;;19.9;;
37365;SDS011;23239;51.504;7.456;2024-03-22T02:29:00;34.3;;;19.9;;
37365;SDS011;23239;51.504;7.456;2024-03-22T02:30:00;34.3;;;19.9;;
37365;SDS011;23239;51.504;7.456;2024-03-22T02:31:00;34.3;;;19.9;;
37365;SDS011;23239;51.504;7.456;2024-03-22T02:32:00;35.8;;;22.9;;
37365;SDS011;23239;51.504;7.456;2024-03-22T02:33:00;35.8;;;22.9;;
37365;SDS011;23239;51.504;7.456;2024-03-22T02:34:00;35.8;;;22.9;;
37365;SDS011;23239;51.504;7.456;2024-03-22T02:35:01;35.8;;;22.9;;
37365;SDS011;23239;51.504;7.456;2024-03-22T02:36:00;35.8;;;22.9;;
37365;SDS011;23239;51.504;7.456;2024-03-22T02:37:00;38.3;;;21.7;;
37365;SDS011;23239;51.504;7.456;2024-03-22T02:38:00;38.3;;;21.7;;
37365;SDS011;23239;51.504;7.456;2024-03-22T02:39:00;38.3;;;21.7;;
37365;SDS011;23239;51.504;7.456;2024-03-22T02:40:00;38.3;;;21.7;;
37365;SDS011;23239;51.504;7.456;2024-03-22T02:41:00;38.3;;;21.7;;
37365;SDS011;23239;51.504;7.456;2024-03-22T02:42:00;32.8;;;20.4;;
37365;SDS011;23239;51.504;7.456;2024-03-22T02:43:00;32.8;;;20.4;;
37365;SDS011;23239;51.504;7.456;2024-03-22T02:44:00;32.8;;;20.4;;
37365;SDS011;23239;51.504;7.456;2024-03-22T02:45:00;32.8;;;20.4;;
37365;SDS011;23239;51.504;7.456;2024-03-22T02:46:00;32.8;;;20.4;;
37365;SDS011;23239;51.504;7.456;2024-03-22T02:47:00;33.9;;;20.8;;
37365;SDS011;23239;51.504;7.456;2024-03-22T02:48:00;33.9;;;20.8;;
37365;SDS011;23239;51.504;7.456;2024-03-22T02:49:00;33.9;;;20.8;;
37365;SDS011;23239;51.504;7.456;2024-03-22T02:50:00;33.9;;;20.8;;
37365;SDS011;23239;51.504;7.456;2024-03-22T02:51:00;33.9;;;20.8;;
37365;SDS011;23239;51.504;7.456;2024-03-22T02:52:00;34.9;;;20.7;;
37365;SDS011;23239;51.504;7.456;2024-03-22T02:53:00;34.9;;;20.7;;
37365;SDS011;23239;51.504;7.456;2024-03-22T02:54:00;34.9;;;20.7;;
37365;SDS011;23239;51.504;7.456;2024-03-22T02:55:00;34.9;;;20.7;;
37365;SDS011;23239;51.504;7.456;2024-03-22T02:56:03;34.9;;;20.7;;
37365;SDS011;23239;51.504;7.456;2024-03-22T02:57:00;36.4;;;21.1;;
37365;SDS011;23239;51.504;7.456;2024-03-22T02:58:00;36.4;;;21.1;;
37365;SDS011;23239;51.504;7.456;2024-03-22T02:59:00;36.4;;;21.1;;
37365;SDS011;23239;51.504;7.456;2024-03-22T03:00:00;36.4;;;21.1;;
37365;SDS011;23239;51.504;7.456;2024-03-22T03:01:00;36.4;;;21.1;;
37365;SDS011;23239;51.504;7.456;2024-03-22T03:02:00;35.0;;;20.9;;
37365;SDS011;23239;51.504;7.456;2024-03-22T03:03:00;35.0;;;20.9;;
37365;SDS011;23239;51.504;7.456;2024-03-22T03:04:00;35.0;;;20.9;;
37365;SDS011;23239;51.504;7.456;2024-03-22T03:05:00;35.0;;;20.9;;
37365;SDS011;23239;51.504;7.456;2024-03-22T03:06:00;35.0;;;20.9;;
37365;SDS011;23239;51.504;7.456;2024-03-22T03:07:00;33.4;;;19.8;;
37365;SDS011;23239;51.504;7.456;2024-03-22T03:08:00;33.4;;;19.8;;
37365;SDS011;23239;51.504;7.456;2024-03-22T03:09:00;33.4;;;19.8;;
37365;SDS011;23239;51.504;7.456;2024-03-22T03:10:00;33.4;;;19.8;;
37365;SDS011;23239;51.504;7.456;2024-03-22T03:11:00;33.4;;;19.8;;
37365;SDS011;23239;51.504;7.456;2024-03-22T03:12:00;33.3;;;20.4;;
37365;SDS011;23239;51.504;7.456;2024-03-22T03:13:00;33.3;;;20.4;;
37365;SDS011;23239;51.504;7.456;2024-03-22T03:14:00;33.3;;;20.4;;
37365;SDS011;23239;51.504;7.456;2024-03-22T03:15:00;33.3;;;20.4;;
37365;SDS011;23239;51.504;7.456;2024-03-22T03:16:00;33.3;;;20.4;;
37365;SDS011;23239;51.504;7.456;2024-03-22T03:17:00;37.6;;;20.3;;
37365;SDS011;23239;51.504;7.456;2024-03-22T03:18:00;37.6;;;20.3;;
37365;SDS011;23239;51.504;7.456;2024-03-22T03:19:00;37.6;;;20.3;;
37365;SDS011;23239;51.504;7.456;2024-03-22T03:20:00;37.6;;;20.3;;
37365;SDS011;23239;51.504;7.456;2024-03-22T03:21:00;37.6;;;20.3;;
37365;SDS011;23239;51.504;7.456;2024-03-22T03:22:00;32.0;;;20.2;;
37365;SDS011;23239;51.504;7.456;2024-03-22T03:23:00;32.0;;;20.2;;
37365;SDS011;23239;51.504;7.456;2024-03-22T03:24:00;32.0;;;20.2;;
37365;SDS011;23239;51.504;7.456;2024-03-22T03:25:00;32.0;;;20.2;;
37365;SDS011;23239;51.504;7.456;2024-03-22T03:26:00;32.0;;;20.2;;
37365;SDS011;23239;51.504;7.456;2024-03-22T03:27:00;32.2;;;19.5;;
37365;SDS011;23239;51.504;7.456;2024-03-22T03:28:00;32.2;;;19.5;;
37365;SDS011;23239;51.504;7.456;2024-03-22T03:29:00;32.2;;;19.5;;
37365;SDS011;23239;51.504;7.456;2024-03-22T03:30:00;32.2;;;19.5;;
37365;SDS011;23239;51.504;7.456;2024-03-22T03:31:00;32.2;;;19.5;;
37365;SDS011;23239;51.504;7.456;2024-03-22T03:32:00;30.4;;;19.1;;
37365;SDS011;23239;51.504;7.456;2024-03-22T03:33:02;30.4;;;19.1;;
37365;SDS011;23239;51.504;7.456;2024-03-22T03:34:00;30.4;;;19.1;;
37365;SDS011;23239;51.504;7.456;2024-03-22T03:35:00;30.4;;;19.1;;
37365;SDS011;23239;51.504;7.456;2024-03-22T03:36:00;30.4;;;19.1;;
37365;SDS011;23239;51.504;7.456;2024-03-22T03:37:00;30.9;;;20.0;;
37365;SDS011;23239;51.504;7.456;2024-03-22T03:38:00;30.9;;;20.0;;
37365;SDS011;23239;51.504;7.456;2024-03-22T03:39:00;30.9;;;20.0;;
37365;SDS011;23239;51.504;7.456;2024-03-22T03:40:00;30.9;;;20.0;;
37365;SDS011;23239;51.504;7.456;2024-03-22T03:41:00;30.9;;;20.0;;
37365;SDS011;23239;51.504;7.456;2024-03-22T03:42:00;32.5;;;19.3;;
37365;SDS011;23239;51.504;7.456;2024-03-22T03:43:00;32.5;;;19.3;;
37365;SDS011;23239;51.504;7.456;2024-03-22T03:44:00;32.5;;;19.3;;
37365;SDS011;23239;51.504;7.456;2024-03-22T03:45:00;32.5;;;19.3;;
37365;SDS011;23239;51.504;7.456;2024-03-22T03:46:00;32.5;;;19.3;;
37365;SDS011;23239;51.504;7.456;2024-03-22T03:47:00;30.8;;;20.1;;
37365;SDS011;23239;51.504;7.456;2024-03-22T03:48:00;30.8;;;20.1;;
37365;SDS011;23239;51.504;7.456;2024-03-22T03:49:00;30.8;;;20.1;;
37365;SDS011;23239;51.504;7.456;2024-03-22T03:50:00;30.8;;;20.1;;
37365;SDS011;23239;51.504;7.456;2024-03-22T03:51:00;30.8;;;20.1;;
37365;SDS011;23239;51.504;7.456;2024-03-22T03:52:00;32.7;;;19.8;;
37365;SDS011;23239;51.504;7.456;2024-03-22T03:53:00;32.7;;;19.8;;
37365;SDS011;23239;51.504;7.456;2024-03-22T03:54:00;32.7;;;19.8;;
37365;SDS011;23239;51.504;7.456;2024-03-22T03:55:00;32.7;;;19.8;;
37365;SDS011;23239;51.504;7.456;2024-03-22T03:56:00;32.7;;;19.8;;
37365;SDS011;23239;51.504;7.456;2024-03-22T03:57:00;35.4;;;21.2;;
37365;SDS011;23239;51.504;7.456;2024-03-22T03:58:00;35.4;;;21.2;;
37365;SDS011;23239;51.504;7.456;2024-03-22T03:59:00;35.4;;;21.2;;
37365;SDS011;23239;51.504;7.456;2024-03-22T04:00:00;35.4;;;21.2;;
37365;SDS011;23239;51.504;7.456;2024-03-22T04:01:04;35.4;;;21.2;;
37365;SDS011;23239;51.504;7.456;2024-03-22T04:02:00;33.7;;;21.1;;
37365;SDS011;23239;51.504;7.456;2024-03-22T04:03:00;33.7;;;21.1;;
37365;SDS011;23239;51.504;7.456;2024-03-22T04:04:00;33.7;;;21.1;;
37365;SDS011;23239;51.504;7.456;2024-03-22T04:05:00;33.7;;;21.1;;
37365;SDS011;23239;51.504;7.456;2024-03-22T04:06:00;33.7;;;21.1;;
37365;SDS011;23239;51.504;7.456;2024-03-22T04:07:00;31.4;;;20.5;;
37365;SDS011;23239;51.504;7.456;2024-03-22T04:08:00;31.4;;;20.5;;
37365;SDS011;23239;51.504;7.456;2024-03-22T04:09:00;31.4;;;20.5;;
37365;SDS011;23239;51.504;7.456;2024-03-22T04:10:00;31.4;;;20.5;;
37365;SDS011;23239;51.504;7.456;2024-03-22T04:11:00;31.4;;;20.5;;
37365;SDS011;23239;51.504;7.456;2024-03-22T04:12:00;32.9;;;21.1;;
37365;SDS011;23239;51.504;7.456;2024-03-22T04:13:00;32.9;;;21.1;;
37365;SDS011;23239;51.504;7.456;2024-03-22T04:14:00;32.9;;;21.1;;
37365;SDS011;23239;51.504;7.456;2024-03-22T04:15:00;32.9;;;21.1;;
37365;SDS011;23239;51.504;7.456;2024-03-22T04:16:00;32.9;;;21.1;;
37365;SDS011;23239;51.504;7.456;2024-03-22T04:17:00;32.1;;;20.3;;
37365;SDS011;23239;51.504;7.456;2024-03-22T04:18:00;32.1;;;20.3;;
37365;SDS011;23239;51.504;7.456;2024-03-22T04:19:00;32.1;;;20.3;;
37365;SDS011;23239;51.504;7.456;2024-03-22T04:20:00;32.1;;;20.3;;
37365;SDS011;23239;51.504;7.456;2024-03-22T04:21:00;32.1;;;20.3;;
37365;SDS011;23239;51.504;7.456;2024-03-22T04:22:00;31.4;;;19.9;;
37365;SDS011;23239;51.504;7.456;2024-03-22T04:23:00;31.4;;;19.9;;
37365;SDS011;23239;51.504;7.456;2024-03-22T04:25:09;31.4;;;19.9;;
37365;SDS011;23239;51.504;7.456;2024-03-22T04:26:00;31.4;;;19.9;;
37365;SDS011;23239;51.504;7.456;2024-03-22T04:27:00;32.9;;;20.0;;
37365;SDS011;23239;51.504;7.456;2024-03-22T04:28:00;32.9;;;20.0;;
37365;SDS011;23239;51.504;7.456;2024-03-22T04:29:00;32.9;;;20.0;;
37365;SDS011;23239;51.504;7.456;2024-03-22T04:30:00;32.9;;;20.0;;
37365;SDS011;23239;51.504;7.456;2024-03-22T04:31:00;32.9;;;20.0;;
37365;SDS011;23239;51.504;7.456;2024-03-22T04:32:04;29.3;;;19.4;;
37365;SDS011;23239;51.504;7.456;2024-03-22T04:33:00;29.3;;;19.4;;
37365;SDS011;23239;51.504;7.456;2024-03-22T04:34:00;29.3;;;19.4;;
37365;SDS011;23239;51.504;7.456;2024-03-22T04:35:00;29.3;;;19.4;;
37365;SDS011;23239;51.504;7.456;2024-03-22T04:36:00;29.3;;;19.4;;
37365;SDS011;23239;51.504;7.456;2024-03-22T04:37:00;28.9;;;18.5;;
37365;SDS011;23239;51.504;7.456;2024-03-22T04:38:00;28.9;;;18.5;;
37365;SDS011;23239;51.504;7.456;2024-03-22T04:39:00;28.9;;;18.5;;
37365;SDS011;23239;51.504;7.456;2024-03-22T04:40:00;28.9;;;18.5;;
37365;SDS011;23239;51.504;7.456;2024-03-22T04:41:00;28.9;;;18.5;;
37365;SDS011;23239;51.504;7.456;2024-03-22T04:42:00;27.8;;;18.7;;
37365;SDS011;23239;51.504;7.456;2024-03-22T04:43:00;27.8;;;18.7;;
37365;SDS011;23239;51.504;7.456;2024-03-22T04:44:00;27.8;;;18.7;;
37365;SDS011;23239;51.504;7.456;2024-03-22T04:45:00;27.8;;;18.7;;
37365;SDS011;23239;51.504;7.456;2024-03-22T04:46:00;27.8;;;18.7;;
37365;SDS011;23239;51.504;7.456;2024-03-22T04:47:00;28.0;;;18.3;;
37365;SDS011;23239;51.504;7.456;2024-03-22T04:48:00;28.0;;;18.3;;
37365;SDS011;23239;51.504;7.456;2024-03-22T04:49:00;28.0;;;18.3;;
37365;SDS011;23239;51.504;7.456;2024-03-22T04:50:00;28.0;;;18.3;;
37365;SDS011;23239;51.504;7.456;2024-03-22T04:51:00;28.0;;;18.3;;
37365;SDS011;23239;51.504;7.456;2024-03-22T04:52:00;27.8;;;18.5;;
37365;SDS011;23239;51.504;7.456;2024-03-22T04:53:00;27.8;;;18.5;;
37365;SDS011;23239;51.504;7.456;2024-03-22T04:54:00;27.8;;;18.5;;
37365;SDS011;23239;51.504;7.456;2024-03-22T04:55:00;27.8;;;18.5;;
37365;SDS011;23239;51.504;7.456;2024-03-22T04:56:00;27.8;;;18.5;;
37365;SDS011;23239;51.504;7.456;2024-03-22T04:57:00;30.7;;;18.9;;
37365;SDS011;23239;51.504;7.456;2024-03-22T04:58:00;30.7;;;18.9;;
37365;SDS011;23239;51.504;7.456;2024-03-22T04:59:00;30.7;;;18.9;;
37365;SDS011;23239;51.504;7.456;2024-03-22T05:00:00;30.7;;;18.9;;
37365;SDS011;23239;51.504;7.456;2024-03-22T05:01:00;30.7;;;18.9;;
37365;SDS011;23239;51.504;7.456;2024-03-22T05:02:00;30.6;;;18.4;;
37365;SDS011;23239;51.504;7.456;2024-03-22T05:03:00;30.6;;;18.4;;
37365;SDS011;23239;51.504;7.456;2024-03-22T05:04:00;30.6;;;18.4;;
37365;SDS011;23239;51.504;7.456;2024-03-22T05:05:00;30.6;;;18.4;;
37365;SDS011;23239;51.504;7.456;2024-03-22T05:06:00;30.6;;;18.4;;
37365;SDS011;23239;51.504;7.456;2024-03-22T05:07:00;27.8;;;18.4;;
37365;SDS011;23239;51.504;7.456;2024-03-22T05:08:00;27.8;;;18.4;;
37365;SDS011;23239;51.504;7.456;2024-03-22T05:09:00;27.8;;;18.4;;
37365;SDS011;23239;51.504;7.456;2024-03-22T05:10:00;27.8;;;18.4;;
37365;SDS011;23239;51.504;7.456;2024-03-22T05:11:00;27.8;;;18.4;;
37365;SDS011;23239;51.504;7.456;2024-03-22T05:12:00;31.5;;;17.3;;
37365;SDS011;23239;51.504;7.456;2024-03-22T05:13:02;31.5;;;17.3;;
37365;SDS011;23239;51.504;7.456;2024-03-22T05:14:00;31.5;;;17.3;;
37365;SDS011;23239;51.504;7.456;2024-03-22T05:15:02;31.5;;;17.3;;
37365;SDS011;23239;51.504;7.456;2024-03-22T05:16:00;31.5;;;17.3;;
37365;SDS011;23239;51.504;7.456;2024-03-22T05:17:00;24.9;;;17.0;;
37365;SDS011;23239;51.504;7.456;2024-03-22T05:18:00;24.9;;;17.0;;
37365;SDS011;23239;51.504;7.456;2024-03-22T05:19:00;24.9;;;17.0;;
37365;SDS011;23239;51.504;7.456;2024-03-22T05:20:00;24.9;;;17.0;;
37365;SDS011;23239;51.504;7.456;2024-03-22T05:21:00;24.9;;;17.0;;
37365;SDS011;23239;51.504;7.456;2024-03-22T05:22:00;28.6;;;17.3;;
37365;SDS011;23239;51.504;7.456;2024-03-22T05:23:00;28.6;;;17.3;;
37365;SDS011;23239;51.504;7.456;2024-03-22T05:24:00;28.6;;;17.3;;
37365;SDS011;23239;51.504;7.456;2024-03-22T05:25:00;28.6;;;17.3;;
37365;SDS011;23239;51.504;7.456;2024-03-22T05:26:00;28.6;;;17.3;;
37365;SDS011;23239;51.504;7.456;2024-03-22T05:27:00;27.6;;;16.7;;
37365;SDS011;23239;51.504;7.456;2024-03-22T05:28:00;27.6;;;16.7;;
37365;SDS011;23239;51.504;7.456;2024-03-22T05:29:00;27.6;;;16.7;;
37365;SDS011;23239;51.504;7.456;2024-03-22T05:30:00;27.6;;;16.7;;
37365;SDS011;23239;51.504;7.456;2024-03-22T05:31:00;27.6;;;16.7;;
37365;SDS011;23239;51.504;7.456;2024-03-22T05:32:00;24.8;;;15.9;;
37365;SDS011;23239;51.504;7.456;2024-03-22T05:33:02;24.8;;;15.9;;
37365;SDS011;23239;51.504;7.456;2024-03-22T05:34:00;24.8;;;15.9;;
37365;SDS011;23239;51.504;7.456;2024-03-22T05:35:00;24.8;;;15.9;;
37365;SDS011;23239;51.504;7.456;2024-03-22T05:36:00;24.8;;;15.9;;
37365;SDS011;23239;51.504;7.456;2024-03-22T05:37:00;24.1;;;15.5;;
37365;SDS011;23239;51.504;7.456;2024-03-22T05:38:00;24.1;;;15.5;;
37365;SDS011;23239;51.504;7.456;2024-03-22T05:39:00;24.1;;;15.5;;
37365;SDS011;23239;51.504;7.456;2024-03-22T05:40:00;24.1;;;15.5;;
37365;SDS011;23239;51.504;7.456;2024-03-22T05:41:03;24.1;;;15.5;;
37365;SDS011;23239;51.504;7.456;2024-03-22T05:42:00;24.1;;;15.5;;
37365;SDS011;23239;51.504;7.456;2024-03-22T05:43:00;25.0;;;16.1;;
37365;SDS011;23239;51.504;7.456;2024-03-22T05:44:00;25.0;;;16.1;;
37365;SDS011;23239;51.504;7.456;2024-03-22T05:45:00;25.0;;;16.1;;
37365;SDS011;23239;51.504;7.456;2024-03-22T05:46:00;25.0;;;16.1;;
37365;SDS011;23239;51.504;7.456;2024-03-22T05:47:00;25.0;;;16.1;;
37365;SDS011;23239;51.504;7.456;2024-03-22T05:48:00;25.6;;;16.1;;
37365;SDS011;23239;51.504;7.456;2024-03-22T05:49:00;25.6;;;16.1;;
37365;SDS011;23239;51.504;7.456;2024-03-22T05:50:00;25.6;;;16.1;;
37365;SDS011;23239;51.504;7.456;2024-03-22T05:51:00;25.6;;;16.1;;
37365;SDS011;23239;51.504;7.456;2024-03-22T05:52:00;25.6;;;16.1;;
37365;SDS011;23239;51.504;7.456;2024-03-22T05:53:00;23.2;;;15.4;;
37365;SDS011;23239;51.504;7.456;2024-03-22T05:54:00;23.2;;;15.4;;
37365;SDS011;23239;51.504;7.456;2024-03-22T05:55:00;23.2;;;15.4;;
37365;SDS011;23239;51.504;7.456;2024-03-22T05:56:00;23.2;;;15.4;;
37365;SDS011;23239;51.504;7.456;2024-03-22T05:57:00;23.2;;;15.4;;
37365;SDS011;23239;51.504;7.456;2024-03-22T05:58:00;22.0;;;14.7;;
37365;SDS011;23239;51.504;7.456;2024-03-22T05:59:00;22.0;;;14.7;;
37365;SDS011;23239;51.504;7.456;2024-03-22T06:00:00;22.0;;;14.7;;
37365;SDS011;23239;51.504;7.456;2024-03-22T06:01:00;22.0;;;14.7;;
37365;SDS011;23239;51.504;7.456;2024-03-22T06:02:00;22.0;;;14.7;;
37365;SDS011;23239;51.504;7.456;2024-03-22T06:03:00;22.2;;;13.8;;